Time;durP1;ratioP1;P1;durP2;ratioP2;P2;SDS_P1;SDS_P2;PMS_P1;PMS_P2;Temp;Humidity;BMP_temperature;BMP_pressure;BME280_temperature;BME280_humidity;BME280_pressure;Samples;Min_cycle;Max_cycle;Signal;HPM_P1;HPM_P2
2022/05/06 00:09:45;;;;;;;26.17;17.05;;;;;;;12.16;100.00;101034.88;21037536;28;20052;-69
2022/05/06 00:19:46;;;;;;;30.55;18.45;;;;;;;12.02;100.00;101038.53;21037610;28;20493;-69
2022/05/06 00:29:48;;;;;;;20.23;13.50;;;;;;;11.95;100.00;101042.13;21036647;28;20049;-69
2022/05/06 00:39:50;;;;;;;21.65;14.38;;;;;;;11.96;100.00;101033.34;21035765;28;20048;-68
2022/05/06 00:49:52;;;;;;;24.75;14.63;;;;;;;11.97;100.00;101029.84;21032970;28;20052;-68
2022/05/06 01:10:14;;;;;;;22.92;15.43;;;;;;;11.93;100.00;101020.28;21030974;28;20044;-69
2022/05/06 01:20:17;;;;;;;24.30;14.65;;;;;;;11.89;100.00;101026.44;21029998;28;20082;-69
2022/05/06 01:30:39;;;;;;;23.35;14.95;;;;;;;11.85;100.00;101030.00;21031499;28;20041;-69
2022/05/06 01:40:47;;;;;;;26.48;16.73;;;;;;;11.93;100.00;101028.16;21030041;28;20081;-69
2022/05/06 01:50:49;;;;;;;27.05;17.30;;;;;;;11.96;100.00;101025.47;21032163;28;20105;-69
2022/05/06 02:00:51;;;;;;;27.77;16.92;;;;;;;11.85;100.00;101021.25;21029688;28;20048;-69
2022/05/06 02:10:52;;;;;;;30.17;18.30;;;;;;;11.89;100.00;101034.31;21027297;28;20060;-69
2022/05/06 02:20:58;;;;;;;27.63;18.17;;;;;;;11.84;100.00;101033.50;21028377;28;20136;-70
2022/05/06 02:41:23;;;;;;;27.60;18.70;;;;;;;11.91;100.00;101034.28;21023801;28;20044;-69
2022/05/06 02:51:25;;;;;;;25.42;18.17;;;;;;;11.87;100.00;101036.06;21027376;28;20056;-70
2022/05/06 03:01:28;;;;;;;24.85;16.48;;;;;;;11.82;100.00;101040.50;21025349;28;20113;-70
2022/05/06 03:11:30;;;;;;;24.45;16.48;;;;;;;11.69;100.00;101033.59;21024525;28;20539;-70
2022/05/06 03:21:31;;;;;;;22.83;15.10;;;;;;;11.67;100.00;101030.13;21024356;28;20048;-70
2022/05/06 03:31:32;;;;;;;23.83;14.23;;;;;;;11.74;100.00;101029.22;21020091;28;20048;-70
2022/05/06 03:41:34;;;;;;;19.23;12.25;;;;;;;11.79;100.00;101025.66;21023603;28;20048;-70
2022/05/06 03:51:36;;;;;;;20.23;11.60;;;;;;;11.78;100.00;101023.03;21023451;28;20094;-70
2022/05/06 04:01:37;;;;;;;19.80;10.95;;;;;;;11.63;100.00;101031.06;21022331;28;20056;-70
2022/05/06 04:11:39;;;;;;;21.88;10.60;;;;;;;11.55;100.00;101041.63;21023194;28;20077;-69
2022/05/06 04:32:00;;;;;;;14.40;9.25;;;;;;;11.57;100.00;101056.47;21025986;28;20051;-69
2022/05/06 04:42:02;;;;;;;16.27;9.48;;;;;;;11.61;100.00;101077.41;21032687;28;20048;-69
2022/05/06 04:52:04;;;;;;;14.95;9.23;;;;;;;11.43;100.00;101087.19;21035719;28;20044;-69
2022/05/06 05:02:07;;;;;;;15.30;8.45;;;;;;;11.52;99.71;101105.47;21033912;28;20125;-69
2022/05/06 05:12:09;;;;;;;12.85;6.78;;;;;;;11.59;96.90;101111.50;21033001;28;20139;-69
2022/05/06 05:22:13;;;;;;;13.27;7.17;;;;;;;11.57;95.08;101103.66;21033288;28;20049;-69
2022/05/06 05:32:15;;;;;;;13.50;7.63;;;;;;;11.64;94.45;101114.09;21028817;28;20115;-69
2022/05/06 05:42:21;;;;;;;13.75;6.65;;;;;;;11.52;94.11;101105.47;21031188;28;20048;-69
2022/05/06 05:52:22;;;;;;;13.80;6.00;;;;;;;11.61;92.62;101116.75;21031362;28;20048;-70
2022/05/06 06:02:24;;;;;;;13.10;6.50;;;;;;;11.59;90.50;101115.88;21029572;28;20450;-69
2022/05/06 06:12:25;;;;;;;14.05;5.53;;;;;;;11.62;90.93;101115.88;21029532;28;20056;-69
2022/05/06 06:22:27;;;;;;;11.88;5.90;;;;;;;11.77;90.26;101121.84;21029924;28;20499;-69
2022/05/06 06:32:28;;;;;;;10.65;5.10;;;;;;;11.79;86.56;101122.72;21027990;28;20044;-69
2022/05/06 06:42:30;;;;;;;12.80;5.60;;;;;;;11.99;88.48;101133.06;21027577;28;20060;-69
2022/05/06 06:52:32;;;;;;;10.65;5.32;;;;;;;12.02;84.76;101140.00;21027018;28;20063;-69
2022/05/06 07:02:35;;;;;;;9.40;5.07;;;;;;;11.96;85.73;101148.81;21014289;28;20040;-69
2022/05/06 07:12:36;;;;;;;9.40;5.20;;;;;;;12.16;85.78;101147.75;21017204;28;20051;-69
2022/05/06 07:22:38;;;;;;;11.45;6.00;;;;;;;12.23;83.88;101152.06;21017214;28;20095;-69
2022/05/06 07:32:39;;;;;;;10.15;6.22;;;;;;;12.25;85.04;101150.28;21015121;28;20102;-69
2022/05/06 07:42:42;;;;;;;13.20;6.70;;;;;;;12.46;83.36;101149.19;21018072;28;20043;-69
2022/05/06 07:52:44;;;;;;;11.63;6.38;;;;;;;12.58;83.33;101154.28;21011248;28;20889;-69
2022/05/06 08:13:06;;;;;;;11.73;6.88;;;;;;;13.08;83.22;101148.41;21028180;28;20047;-69
2022/05/06 08:23:08;;;;;;;11.82;6.45;;;;;;;13.51;82.79;101149.53;21030291;28;20515;-69
2022/05/06 08:33:10;;;;;;;11.57;6.40;;;;;;;14.00;80.08;101154.84;21028901;28;20443;-69
2022/05/06 08:43:12;;;;;;;11.45;6.22;;;;;;;14.27;79.35;101156.09;21027431;28;20044;-69
2022/05/06 08:53:14;;;;;;;13.98;5.95;;;;;;;14.59;75.35;101160.78;21026760;28;20044;-69
2022/05/06 09:03:17;;;;;;;9.52;5.35;;;;;;;14.74;74.93;101158.72;21025573;28;20097;-70
2022/05/06 09:13:24;;;;;;;8.95;5.10;;;;;;;15.17;73.21;101153.41;21027224;28;20089;-70
2022/05/06 09:23:28;;;;;;;12.70;5.03;;;;;;;15.75;69.66;101151.16;21026333;28;20044;-70
2022/05/06 09:33:31;;;;;;;8.93;4.82;;;;;;;15.89;66.93;101159.63;21024883;28;20058;-70
2022/05/06 09:43:34;;;;;;;8.50;4.73;;;;;;;16.38;63.68;101153.03;21024559;28;20089;-70
2022/05/06 09:53:36;;;;;;;9.32;4.70;;;;;;;16.57;59.24;101154.22;21023376;28;20063;-70
2022/05/06 10:03:39;;;;;;;10.75;4.50;;;;;;;16.82;58.17;101158.88;21020441;28;20121;-69
2022/05/06 10:13:47;;;;;;;9.80;4.18;;;;;;;17.18;60.53;101149.81;21018957;28;20044;-69
2022/05/06 10:23:54;;;;;;;7.78;3.40;;;;;;;17.40;55.52;101139.41;21017765;28;20397;-69
2022/05/06 10:34:10;;;;;;;5.70;2.33;;;;;;;17.76;48.03;101149.75;21018632;28;20067;-69
2022/05/06 10:44:30;;;;;;;6.10;2.72;;;;;;;17.89;49.67;101129.00;21016906;28;20043;-69
2022/05/06 10:54:33;;;;;;;5.95;2.45;;;;;;;17.90;44.80;101130.72;21018449;28;20040;-69
2022/05/06 11:04:34;;;;;;;6.07;2.28;;;;;;;17.87;44.58;101120.22;21016776;28;20100;-69
2022/05/06 11:14:36;;;;;;;6.90;2.75;;;;;;;17.88;45.05;101122.84;21016005;28;20057;-69
2022/05/06 11:24:37;;;;;;;7.50;2.60;;;;;;;18.60;47.55;101099.03;21017901;28;20200;-69
2022/05/06 11:34:46;;;;;;;6.85;2.85;;;;;;;18.38;44.18;101100.75;21016799;28;20113;-69
2022/05/06 11:55:18;;;;;;;7.35;2.95;;;;;;;18.56;45.33;101084.16;21031488;28;20055;-68
2022/05/06 12:05:20;;;;;;;10.60;2.92;;;;;;;18.88;44.95;101082.97;21029829;28;20048;-69
2022/05/06 12:15:38;;;;;;;8.02;2.53;;;;;;;19.03;44.29;101076.19;21029566;28;20048;-69
2022/05/06 12:25:41;;;;;;;9.20;2.50;;;;;;;19.34;43.75;101056.34;21027638;28;20081;-69
2022/05/06 12:35:59;;;;;;;6.07;2.30;;;;;;;19.24;43.20;101050.53;21030097;28;20502;-69
2022/05/06 12:46:00;;;;;;;7.40;2.15;;;;;;;19.18;41.36;101051.66;21029989;28;20464;-69
2022/05/06 12:56:05;;;;;;;3.78;1.83;;;;;;;19.27;41.48;101041.59;21027573;28;20051;-69
2022/05/06 13:06:06;;;;;;;3.60;1.50;;;;;;;19.64;43.18;101035.59;21026361;28;20510;-69
2022/05/06 13:16:09;;;;;;;6.72;1.67;;;;;;;19.65;42.63;101034.69;21022138;28;20056;-69
2022/05/06 13:26:11;;;;;;;4.72;2.20;;;;;;;19.88;41.95;101025.69;21023228;28;20485;-69
2022/05/06 13:36:12;;;;;;;4.75;1.83;;;;;;;20.00;37.83;101014.53;21024607;28;20048;-67
2022/05/06 13:46:14;;;;;;;4.03;1.75;;;;;;;19.88;39.61;101015.06;21024415;28;20075;-67
2022/05/06 14:06:35;;;;;;;5.20;1.70;;;;;;;19.89;39.13;101001.72;21019045;28;20412;-68
2022/05/06 14:16:37;;;;;;;4.07;1.60;;;;;;;19.88;38.80;100989.38;21019274;28;20060;-68
2022/05/06 14:26:39;;;;;;;6.60;1.90;;;;;;;20.17;38.58;100985.38;21022068;28;20110;-68
2022/05/06 14:36:40;;;;;;;9.60;1.90;;;;;;;20.21;37.76;100976.31;21020014;28;20522;-68
2022/05/06 14:46:42;;;;;;;3.45;1.67;;;;;;;20.28;40.07;100981.38;21019630;28;20086;-68
2022/05/06 14:56:44;;;;;;;3.42;1.50;;;;;;;20.38;37.69;100974.66;21019219;28;20060;-68
2022/05/06 15:06:45;;;;;;;6.15;1.80;;;;;;;20.55;38.05;100968.56;21016307;28;20044;-68
2022/05/06 15:16:47;;;;;;;5.43;1.50;;;;;;;20.33;36.78;100960.72;21015920;28;20056;-68
2022/05/06 15:26:50;;;;;;;5.97;1.60;;;;;;;20.21;37.60;100957.69;21016126;28;20048;-68
2022/05/06 15:36:52;;;;;;;2.63;1.35;;;;;;;20.52;35.68;100956.28;21015374;28;20139;-68
2022/05/06 15:46:53;;;;;;;5.20;2.47;;;;;;;20.28;38.35;100955.63;21015774;28;20056;-68
2022/05/06 15:56:55;;;;;;;3.72;1.45;;;;;;;20.80;35.54;100952.28;21016260;28;20494;-68
2022/05/06 16:06:56;;;;;;;3.25;1.52;;;;;;;20.44;36.62;100939.78;21014069;28;20044;-67
2022/05/06 16:16:57;;;;;;;5.70;1.40;;;;;;;20.07;39.29;100945.97;21015281;28;20062;-68
2022/05/06 16:26:59;;;;;;;2.90;1.80;;;;;;;20.02;40.81;100946.19;21022754;28;20468;-68
2022/05/06 16:47:21;;;;;;;2.25;1.10;;;;;;;20.24;42.19;100932.78;21028126;28;20052;-68
2022/05/06 16:57:22;;;;;;;4.28;2.05;;;;;;;20.39;41.42;100925.84;21028711;28;20093;-68
2022/05/06 17:07:24;;;;;;;4.22;1.80;;;;;;;20.28;39.44;100928.19;21025416;28;20044;-68
2022/05/06 17:17:26;;;;;;;5.10;1.60;;;;;;;20.22;40.79;100935.50;21027549;28;20060;-68
2022/05/06 17:27:27;;;;;;;5.88;1.90;;;;;;;20.08;41.44;100939.75;21026627;28;20048;-68
2022/05/06 17:37:31;;;;;;;4.15;1.63;;;;;;;20.10;41.39;100938.72;21024413;28;20059;-68
2022/05/06 17:47:35;;;;;;;3.05;1.40;;;;;;;19.68;42.64;100947.72;21024698;28;20044;-68
2022/05/06 17:57:36;;;;;;;4.90;1.60;;;;;;;18.91;45.32;100949.28;21020253;28;20527;-68
2022/05/06 18:07:38;;;;;;;2.65;1.40;;;;;;;18.49;46.76;100959.81;21018810;28;20041;-68
2022/05/06 18:17:40;;;;;;;6.93;1.58;;;;;;;18.12;53.06;100967.41;21017552;28;20060;-68
2022/05/06 18:27:44;;;;;;;7.38;2.25;;;;;;;17.58;58.78;100971.13;21020387;28;20052;-68
2022/05/06 18:37:45;;;;;;;3.50;1.67;;;;;;;17.13;62.72;100981.50;21018894;28;20467;-68
2022/05/06 18:47:47;;;;;;;4.68;2.40;;;;;;;16.62;67.17;100990.19;21022215;28;20117;-68
2022/05/06 18:57:49;;;;;;;4.93;2.22;;;;;;;16.25;68.44;101004.53;21018476;28;20413;-68
2022/05/06 19:07:50;;;;;;;5.85;2.53;;;;;;;15.84;68.97;101013.63;21016074;28;20049;-68
2022/05/06 19:17:57;;;;;;;5.55;2.00;;;;;;;15.32;72.42;101014.97;21019217;28;20550;-68
2022/05/06 19:27:58;;;;;;;4.32;1.90;;;;;;;14.82;73.95;101025.00;21013939;28;20075;-68
2022/05/06 19:38:00;;;;;;;7.20;3.03;;;;;;;14.70;79.60;101038.44;21015449;28;20926;-68
2022/05/06 19:48:07;;;;;;;7.13;3.38;;;;;;;14.55;80.01;101035.25;21015816;28;20408;-68
2022/05/06 19:58:09;;;;;;;8.75;2.80;;;;;;;14.41;82.79;101039.03;21015781;28;20048;-68
2022/05/06 20:08:10;;;;;;;7.75;2.47;;;;;;;14.05;79.59;101042.41;21029430;28;20052;-68
2022/05/06 20:18:12;;;;;;;4.47;2.17;;;;;;;13.51;83.20;101045.19;21030717;28;20094;-67
2022/05/06 20:28:16;;;;;;;6.33;2.50;;;;;;;13.25;85.92;101042.97;21027176;28;20075;-68
2022/05/06 20:38:18;;;;;;;8.15;2.92;;;;;;;13.26;86.56;101049.09;21029456;28;20048;-68
2022/05/06 20:48:19;;;;;;;7.25;3.30;;;;;;;13.16;86.56;101045.72;21028955;28;20056;-68
2022/05/06 21:19:03;;;;;;;6.70;2.88;;;;;;;12.57;90.74;101053.59;21023504;28;20045;-67
2022/05/06 21:29:06;;;;;;;7.00;2.88;;;;;;;12.32;91.51;101046.94;21026416;28;20050;-68
2022/05/06 21:39:08;;;;;;;8.40;3.05;;;;;;;12.12;90.36;101054.16;21023647;28;20113;-67
2022/05/06 21:49:09;;;;;;;6.13;3.47;;;;;;;11.97;93.21;101053.44;21024723;28;20105;-67
2022/05/06 21:59:11;;;;;;;7.95;4.30;;;;;;;11.96;94.11;101048.22;21024411;28;20569;-68
2022/05/06 22:09:16;;;;;;;8.98;4.47;;;;;;;11.60;94.01;101050.31;21023629;28;20094;-67
2022/05/06 22:19:18;;;;;;;;;;;;;;;11.53;96.77;101046.00;21027061;28;20048;-68
2022/05/06 22:29:20;;;;;;;9.85;3.92;;;;;;;11.30;98.20;101046.19;21027938;28;19924;-67
2022/05/06 22:39:21;;;;;;;7.80;3.78;;;;;;;11.15;98.96;101041.09;21026016;28;20059;-67
2022/05/06 22:49:23;;;;;;;6.82;4.13;;;;;;;10.82;100.00;101040.44;21026410;28;20067;-67
2022/05/06 22:59:24;;;;;;;8.02;4.25;;;;;;;10.82;99.95;101044.81;21026104;28;20063;-67
2022/05/06 23:09:26;;;;;;;11.07;5.50;;;;;;;10.69;100.00;101042.28;21024548;28;20476;-67
2022/05/06 23:19:27;;;;;;;7.28;4.43;;;;;;;10.57;100.00;101039.72;21025652;28;20428;-67
2022/05/06 23:29:29;;;;;;;8.05;4.25;;;;;;;10.56;100.00;101042.38;21025323;28;20138;-67
2022/05/06 23:39:30;;;;;;;9.20;4.28;;;;;;;10.47;100.00;101031.06;21023285;28;20056;-67
2022/05/06 23:49:32;;;;;;;8.68;4.43;;;;;;;10.15;100.00;101043.38;21020371;28;20052;-67
2022/05/06 23:59:33;;;;;;;10.23;4.70;;;;;;;9.86;100.00;101036.47;21023782;28;20122;-67
